sensor_id;sensor_type;location;lat;lon;timestamp;pressure;altitude;pressure_sealevel;temperature;humidity
25944;BME280;13742;49.306;8.636;2023-03-04T00:00:18;101217.23;;;2.83;71.09
25944;BME280;13742;49.306;8.636;2023-03-04T00:01:18;101218.08;;;2.82;70.84
25944;BME280;13742;49.306;8.636;2023-03-04T00:02:18;101221.50;;;2.80;70.61
25944;BME280;13742;49.306;8.636;2023-03-04T00:03:18;101220.57;;;2.81;71.18
25944;BME280;13742;49.306;8.636;2023-03-04T00:04:18;101219.22;;;2.80;71.47
25944;BME280;13742;49.306;8.636;2023-03-04T00:05:18;101217.80;;;2.80;71.48
25944;BME280;13742;49.306;8.636;2023-03-04T00:06:18;101223.09;;;2.77;71.47
25944;BME280;13742;49.306;8.636;2023-03-04T00:07:18;101222.40;;;2.74;71.80
25944;BME280;13742;49.306;8.636;2023-03-04T00:08:18;101221.91;;;2.74;71.74
25944;BME280;13742;49.306;8.636;2023-03-04T00:09:18;101224.56;;;2.74;71.34
25944;BME280;13742;49.306;8.636;2023-03-04T00:10:18;101223.58;;;2.72;71.32
25944;BME280;13742;49.306;8.636;2023-03-04T00:11:18;101228.72;;;2.71;71.33
25944;BME280;13742;49.306;8.636;2023-03-04T00:12:18;101227.45;;;2.69;71.93
25944;BME280;13742;49.306;8.636;2023-03-04T00:13:20;101229.52;;;2.63;72.18
25944;BME280;13742;49.306;8.636;2023-03-04T00:14:18;101228.34;;;2.63;71.86
25944;BME280;13742;49.306;8.636;2023-03-04T00:15:18;101230.66;;;2.57;72.74
25944;BME280;13742;49.306;8.636;2023-03-04T00:16:18;101230.25;;;2.55;72.80
25944;BME280;13742;49.306;8.636;2023-03-04T00:17:18;101229.19;;;2.57;72.25
25944;BME280;13742;49.306;8.636;2023-03-04T00:18:20;101231.84;;;2.60;72.24
25944;BME280;13742;49.306;8.636;2023-03-04T00:19:18;101230.87;;;2.60;72.38
25944;BME280;13742;49.306;8.636;2023-03-04T00:20:18;101230.58;;;2.60;72.14
25944;BME280;13742;49.306;8.636;2023-03-04T00:21:18;101232.81;;;2.60;72.25
25944;BME280;13742;49.306;8.636;2023-03-04T00:22:18;101228.95;;;2.60;72.23
25944;BME280;13742;49.306;8.636;2023-03-04T00:23:18;101228.78;;;2.59;72.05
25944;BME280;13742;49.306;8.636;2023-03-04T00:24:18;101231.35;;;2.57;72.23
25944;BME280;13742;49.306;8.636;2023-03-04T00:25:18;101232.61;;;2.57;72.68
25944;BME280;13742;49.306;8.636;2023-03-04T00:26:18;101228.73;;;2.55;72.66
25944;BME280;13742;49.306;8.636;2023-03-04T00:27:18;101230.41;;;2.54;72.41
25944;BME280;13742;49.306;8.636;2023-03-04T00:28:18;101229.52;;;2.53;73.11
25944;BME280;13742;49.306;8.636;2023-03-04T00:29:18;101229.02;;;2.53;72.96
25944;BME280;13742;49.306;8.636;2023-03-04T00:30:18;101232.56;;;2.53;72.59
25944;BME280;13742;49.306;8.636;2023-03-04T00:31:18;101231.51;;;2.52;72.44
25944;BME280;13742;49.306;8.636;2023-03-04T00:32:18;101229.27;;;2.52;72.48
25944;BME280;13742;49.306;8.636;2023-03-04T00:33:18;101234.72;;;2.53;72.52
25944;BME280;13742;49.306;8.636;2023-03-04T00:34:18;101233.42;;;2.52;72.78
25944;BME280;13742;49.306;8.636;2023-03-04T00:35:18;101235.86;;;2.53;72.84
25944;BME280;13742;49.306;8.636;2023-03-04T00:36:18;101236.56;;;2.52;72.55
25944;BME280;13742;49.306;8.636;2023-03-04T00:37:18;101238.92;;;2.50;72.84
25944;BME280;13742;49.306;8.636;2023-03-04T00:38:18;101236.98;;;2.43;73.41
25944;BME280;13742;49.306;8.636;2023-03-04T00:39:18;101240.70;;;2.42;74.08
25944;BME280;13742;49.306;8.636;2023-03-04T00:40:18;101240.14;;;2.30;74.82
25944;BME280;13742;49.306;8.636;2023-03-04T00:41:18;101239.90;;;2.32;74.32
25944;BME280;13742;49.306;8.636;2023-03-04T00:42:18;101242.59;;;2.34;73.87
25944;BME280;13742;49.306;8.636;2023-03-04T00:43:18;101242.51;;;2.34;73.84
25944;BME280;13742;49.306;8.636;2023-03-04T00:44:18;101242.96;;;2.35;74.31
25944;BME280;13742;49.306;8.636;2023-03-04T00:45:18;101242.84;;;2.34;73.52
25944;BME280;13742;49.306;8.636;2023-03-04T00:46:18;101244.95;;;2.34;73.56
25944;BME280;13742;49.306;8.636;2023-03-04T00:47:18;101247.34;;;2.31;73.80
25944;BME280;13742;49.306;8.636;2023-03-04T00:48:18;101248.13;;;2.33;73.67
25944;BME280;13742;49.306;8.636;2023-03-04T00:49:18;101248.30;;;2.33;73.89
25944;BME280;13742;49.306;8.636;2023-03-04T00:50:18;101248.34;;;2.34;73.53
25944;BME280;13742;49.306;8.636;2023-03-04T00:51:18;101247.92;;;2.33;73.52
25944;BME280;13742;49.306;8.636;2023-03-04T00:52:18;101246.58;;;2.33;73.27
25944;BME280;13742;49.306;8.636;2023-03-04T00:53:19;101248.13;;;2.32;73.39
25944;BME280;13742;49.306;8.636;2023-03-04T00:54:18;101247.31;;;2.32;73.28
25944;BME280;13742;49.306;8.636;2023-03-04T00:55:18;101249.72;;;2.31;73.06
25944;BME280;13742;49.306;8.636;2023-03-04T00:56:18;101249.10;;;2.30;73.70
25944;BME280;13742;49.306;8.636;2023-03-04T00:57:18;101251.70;;;2.29;72.98
25944;BME280;13742;49.306;8.636;2023-03-04T00:58:18;101249.39;;;2.30;73.62
25944;BME280;13742;49.306;8.636;2023-03-04T00:59:18;101252.77;;;2.30;73.50
25944;BME280;13742;49.306;8.636;2023-03-04T01:00:18;101254.11;;;2.29;73.70
25944;BME280;13742;49.306;8.636;2023-03-04T01:01:18;101245.95;;;2.26;74.17
25944;BME280;13742;49.306;8.636;2023-03-04T01:02:18;101246.44;;;2.26;74.03
25944;BME280;13742;49.306;8.636;2023-03-04T01:03:18;101248.41;;;2.27;74.24
25944;BME280;13742;49.306;8.636;2023-03-04T01:04:18;101245.02;;;2.25;73.91
25944;BME280;13742;49.306;8.636;2023-03-04T01:05:18;101247.20;;;2.22;74.41
25944;BME280;13742;49.306;8.636;2023-03-04T01:06:18;101247.81;;;2.19;74.59
25944;BME280;13742;49.306;8.636;2023-03-04T01:07:18;101246.22;;;2.19;74.31
25944;BME280;13742;49.306;8.636;2023-03-04T01:08:18;101248.21;;;2.18;73.81
25944;BME280;13742;49.306;8.636;2023-03-04T01:09:18;101246.21;;;2.18;74.07
25944;BME280;13742;49.306;8.636;2023-03-04T01:10:18;101245.28;;;2.18;74.03
25944;BME280;13742;49.306;8.636;2023-03-04T01:11:18;101247.51;;;2.15;74.67
25944;BME280;13742;49.306;8.636;2023-03-04T01:12:18;101248.59;;;2.13;74.43
25944;BME280;13742;49.306;8.636;2023-03-04T01:13:18;101248.56;;;2.13;74.42
25944;BME280;13742;49.306;8.636;2023-03-04T01:14:18;101250.84;;;2.12;74.20
25944;BME280;13742;49.306;8.636;2023-03-04T01:15:18;101247.73;;;2.01;75.17
25944;BME280;13742;49.306;8.636;2023-03-04T01:16:18;101249.11;;;1.96;75.62
25944;BME280;13742;49.306;8.636;2023-03-04T01:17:18;101248.14;;;1.99;75.41
25944;BME280;13742;49.306;8.636;2023-03-04T01:18:18;101246.83;;;1.99;75.37
25944;BME280;13742;49.306;8.636;2023-03-04T01:19:18;101249.42;;;1.95;74.83
25944;BME280;13742;49.306;8.636;2023-03-04T01:20:18;101246.83;;;1.96;75.45
25944;BME280;13742;49.306;8.636;2023-03-04T01:21:18;101244.75;;;1.95;75.22
25944;BME280;13742;49.306;8.636;2023-03-04T01:22:18;101243.20;;;1.96;75.62
25944;BME280;13742;49.306;8.636;2023-03-04T01:23:18;101248.94;;;1.95;75.10
25944;BME280;13742;49.306;8.636;2023-03-04T01:24:18;101243.27;;;1.94;75.33
25944;BME280;13742;49.306;8.636;2023-03-04T01:25:18;101241.77;;;1.94;75.07
25944;BME280;13742;49.306;8.636;2023-03-04T01:26:18;101245.60;;;1.94;75.28
25944;BME280;13742;49.306;8.636;2023-03-04T01:27:18;101239.86;;;1.94;75.00
25944;BME280;13742;49.306;8.636;2023-03-04T01:28:18;101240.63;;;1.94;74.97
25944;BME280;13742;49.306;8.636;2023-03-04T01:29:18;101237.74;;;1.94;75.08
25944;BME280;13742;49.306;8.636;2023-03-04T01:30:18;101238.23;;;1.94;74.87
25944;BME280;13742;49.306;8.636;2023-03-04T01:31:18;101235.70;;;1.92;75.84
25944;BME280;13742;49.306;8.636;2023-03-04T01:32:18;101239.06;;;1.89;75.82
25944;BME280;13742;49.306;8.636;2023-03-04T01:33:18;101238.16;;;1.89;75.19
25944;BME280;13742;49.306;8.636;2023-03-04T01:34:18;101235.48;;;1.89;75.07
25944;BME280;13742;49.306;8.636;2023-03-04T01:35:18;101233.00;;;1.90;75.48
25944;BME280;13742;49.306;8.636;2023-03-04T01:36:18;101235.72;;;1.89;74.90
25944;BME280;13742;49.306;8.636;2023-03-04T01:37:18;101230.27;;;1.89;75.33
25944;BME280;13742;49.306;8.636;2023-03-04T01:38:18;101230.95;;;1.88;75.60
25944;BME280;13742;49.306;8.636;2023-03-04T01:39:18;101234.25;;;1.87;75.55
25944;BME280;13742;49.306;8.636;2023-03-04T01:40:18;101230.41;;;1.85;75.85
25944;BME280;13742;49.306;8.636;2023-03-04T01:41:21;101231.55;;;1.83;76.46
25944;BME280;13742;49.306;8.636;2023-03-04T01:42:19;101232.69;;;1.83;75.42
25944;BME280;13742;49.306;8.636;2023-03-04T01:43:24;101235.95;;;1.85;75.89
25944;BME280;13742;49.306;8.636;2023-03-04T01:44:18;101234.48;;;1.84;75.20
25944;BME280;13742;49.306;8.636;2023-03-04T01:45:18;101233.97;;;1.78;75.58
25944;BME280;13742;49.306;8.636;2023-03-04T01:46:20;101234.33;;;1.78;75.74
25944;BME280;13742;49.306;8.636;2023-03-04T01:47:18;101230.59;;;1.79;75.81
25944;BME280;13742;49.306;8.636;2023-03-04T01:48:23;101229.42;;;1.73;75.41
25944;BME280;13742;49.306;8.636;2023-03-04T01:49:18;101232.53;;;1.75;75.27
25944;BME280;13742;49.306;8.636;2023-03-04T01:50:20;101227.48;;;1.76;75.48
25944;BME280;13742;49.306;8.636;2023-03-04T01:51:19;101231.02;;;1.74;75.42
25944;BME280;13742;49.306;8.636;2023-03-04T01:52:18;101225.39;;;1.72;75.22
25944;BME280;13742;49.306;8.636;2023-03-04T01:53:20;101222.27;;;1.73;75.44
25944;BME280;13742;49.306;8.636;2023-03-04T01:54:19;101225.53;;;1.75;76.19
25944;BME280;13742;49.306;8.636;2023-03-04T01:55:19;101222.59;;;1.74;76.00
25944;BME280;13742;49.306;8.636;2023-03-04T01:56:21;101219.46;;;1.74;75.92
25944;BME280;13742;49.306;8.636;2023-03-04T01:57:19;101221.30;;;1.75;76.07
25944;BME280;13742;49.306;8.636;2023-03-04T01:58:18;101219.78;;;1.74;75.85
25944;BME280;13742;49.306;8.636;2023-03-04T01:59:19;101221.00;;;1.72;75.29
25944;BME280;13742;49.306;8.636;2023-03-04T02:00:28;101218.52;;;1.73;75.77
25944;BME280;13742;49.306;8.636;2023-03-04T02:01:18;101220.76;;;1.74;75.75
25944;BME280;13742;49.306;8.636;2023-03-04T02:02:18;101220.69;;;1.74;76.07
25944;BME280;13742;49.306;8.636;2023-03-04T02:03:18;101218.47;;;1.72;76.28
25944;BME280;13742;49.306;8.636;2023-03-04T02:04:20;101218.98;;;1.69;75.63
25944;BME280;13742;49.306;8.636;2023-03-04T02:05:18;101215.77;;;1.68;75.59
25944;BME280;13742;49.306;8.636;2023-03-04T02:06:18;101215.31;;;1.66;75.81
25944;BME280;13742;49.306;8.636;2023-03-04T02:07:18;101217.42;;;1.66;75.88
25944;BME280;13742;49.306;8.636;2023-03-04T02:08:20;101209.14;;;1.62;75.77
25944;BME280;13742;49.306;8.636;2023-03-04T02:09:18;101213.63;;;1.61;76.18
25944;BME280;13742;49.306;8.636;2023-03-04T02:10:18;101213.20;;;1.61;76.72
25944;BME280;13742;49.306;8.636;2023-03-04T02:11:18;101211.34;;;1.61;76.55
25944;BME280;13742;49.306;8.636;2023-03-04T02:12:18;101206.80;;;1.58;76.28
25944;BME280;13742;49.306;8.636;2023-03-04T02:13:18;101209.11;;;1.55;76.41
25944;BME280;13742;49.306;8.636;2023-03-04T02:14:19;101206.88;;;1.54;76.11
25944;BME280;13742;49.306;8.636;2023-03-04T02:15:18;101204.71;;;1.53;76.44
25944;BME280;13742;49.306;8.636;2023-03-04T02:16:18;101205.58;;;1.47;77.13
25944;BME280;13742;49.306;8.636;2023-03-04T02:17:23;101206.23;;;1.48;77.24
25944;BME280;13742;49.306;8.636;2023-03-04T02:18:19;101207.49;;;1.48;77.67
25944;BME280;13742;49.306;8.636;2023-03-04T02:19:23;101208.12;;;1.43;78.11
25944;BME280;13742;49.306;8.636;2023-03-04T02:22:54;101210.31;;;1.45;77.28
25944;BME280;13742;49.306;8.636;2023-03-04T02:24:20;101209.45;;;1.43;77.23
25944;BME280;13742;49.306;8.636;2023-03-04T02:25:21;101208.84;;;1.41;77.43
25944;BME280;13742;49.306;8.636;2023-03-04T02:26:19;101208.34;;;1.40;77.47
25944;BME280;13742;49.306;8.636;2023-03-04T02:27:18;101206.09;;;1.37;77.61
25944;BME280;13742;49.306;8.636;2023-03-04T02:28:18;101211.20;;;1.29;78.09
25944;BME280;13742;49.306;8.636;2023-03-04T02:29:18;101208.34;;;1.20;79.53
25944;BME280;13742;49.306;8.636;2023-03-04T02:30:19;101204.59;;;1.25;79.35
25944;BME280;13742;49.306;8.636;2023-03-04T02:32:18;101205.86;;;1.26;78.20
25944;BME280;13742;49.306;8.636;2023-03-04T02:33:18;101202.45;;;1.27;78.46
25944;BME280;13742;49.306;8.636;2023-03-04T02:34:22;101201.27;;;1.27;78.14
25944;BME280;13742;49.306;8.636;2023-03-04T02:35:18;101204.07;;;1.26;78.14
25944;BME280;13742;49.306;8.636;2023-03-04T02:36:18;101205.61;;;1.26;78.10
25944;BME280;13742;49.306;8.636;2023-03-04T02:37:18;101205.49;;;1.26;78.29
25944;BME280;13742;49.306;8.636;2023-03-04T02:38:18;101210.63;;;1.27;78.57
25944;BME280;13742;49.306;8.636;2023-03-04T02:39:24;101207.45;;;1.22;78.41
25944;BME280;13742;49.306;8.636;2023-03-04T02:41:20;101209.18;;;1.24;78.21
25944;BME280;13742;49.306;8.636;2023-03-04T02:42:18;101204.91;;;1.19;77.89
25944;BME280;13742;49.306;8.636;2023-03-04T02:43:18;101205.58;;;1.20;78.47
25944;BME280;13742;49.306;8.636;2023-03-04T02:44:19;101205.78;;;1.20;78.74
25944;BME280;13742;49.306;8.636;2023-03-04T02:46:18;101203.62;;;1.19;78.66
25944;BME280;13742;49.306;8.636;2023-03-04T02:47:30;101204.39;;;1.20;78.92
25944;BME280;13742;49.306;8.636;2023-03-04T02:48:19;101204.96;;;1.19;78.83
25944;BME280;13742;49.306;8.636;2023-03-04T02:49:18;101205.00;;;1.18;78.77
25944;BME280;13742;49.306;8.636;2023-03-04T02:50:18;101199.50;;;1.17;78.94
25944;BME280;13742;49.306;8.636;2023-03-04T02:51:18;101202.37;;;1.14;79.24
25944;BME280;13742;49.306;8.636;2023-03-04T02:52:19;101203.16;;;1.16;79.17
25944;BME280;13742;49.306;8.636;2023-03-04T02:53:20;101200.91;;;1.17;79.09
25944;BME280;13742;49.306;8.636;2023-03-04T02:54:20;101205.05;;;1.15;79.11
25944;BME280;13742;49.306;8.636;2023-03-04T02:55:18;101202.08;;;1.14;79.44
25944;BME280;13742;49.306;8.636;2023-03-04T02:56:18;101199.06;;;1.14;79.00
25944;BME280;13742;49.306;8.636;2023-03-04T02:57:18;101199.84;;;1.15;78.53
25944;BME280;13742;49.306;8.636;2023-03-04T02:58:18;101196.70;;;1.12;78.24
25944;BME280;13742;49.306;8.636;2023-03-04T02:59:19;101196.22;;;1.12;78.34
25944;BME280;13742;49.306;8.636;2023-03-04T03:00:18;101197.28;;;1.14;78.94
25944;BME280;13742;49.306;8.636;2023-03-04T03:01:18;101196.55;;;1.14;78.84
25944;BME280;13742;49.306;8.636;2023-03-04T03:02:18;101196.34;;;1.13;78.95
25944;BME280;13742;49.306;8.636;2023-03-04T03:03:18;101195.57;;;1.13;78.35
25944;BME280;13742;49.306;8.636;2023-03-04T03:04:18;101199.46;;;1.12;78.02
25944;BME280;13742;49.306;8.636;2023-03-04T03:05:18;101203.16;;;1.13;78.90
25944;BME280;13742;49.306;8.636;2023-03-04T03:06:18;101202.75;;;1.11;78.03
25944;BME280;13742;49.306;8.636;2023-03-04T03:07:18;101198.88;;;1.10;78.07
25944;BME280;13742;49.306;8.636;2023-03-04T03:08:18;101201.66;;;1.12;78.32
25944;BME280;13742;49.306;8.636;2023-03-04T03:09:18;101201.41;;;1.12;78.46
25944;BME280;13742;49.306;8.636;2023-03-04T03:10:18;101204.56;;;1.09;77.94
25944;BME280;13742;49.306;8.636;2023-03-04T03:11:18;101198.63;;;1.08;78.06
25944;BME280;13742;49.306;8.636;2023-03-04T03:12:18;101197.29;;;1.09;77.91
25944;BME280;13742;49.306;8.636;2023-03-04T03:13:18;101201.69;;;1.04;77.93
25944;BME280;13742;49.306;8.636;2023-03-04T03:14:18;101200.85;;;1.06;78.99
25944;BME280;13742;49.306;8.636;2023-03-04T03:15:18;101199.58;;;1.05;78.30
25944;BME280;13742;49.306;8.636;2023-03-04T03:16:18;101201.98;;;1.06;78.91
25944;BME280;13742;49.306;8.636;2023-03-04T03:17:18;101201.94;;;1.05;79.46
25944;BME280;13742;49.306;8.636;2023-03-04T03:18:18;101202.47;;;1.06;79.10
25944;BME280;13742;49.306;8.636;2023-03-04T03:19:18;101198.56;;;1.06;79.20
25944;BME280;13742;49.306;8.636;2023-03-04T03:20:18;101201.14;;;0.91;79.70
25944;BME280;13742;49.306;8.636;2023-03-04T03:21:18;101199.16;;;0.77;81.30
25944;BME280;13742;49.306;8.636;2023-03-04T03:22:18;101201.66;;;0.64;82.35
25944;BME280;13742;49.306;8.636;2023-03-04T03:23:19;101204.78;;;0.72;82.46
25944;BME280;13742;49.306;8.636;2023-03-04T03:24:19;101203.36;;;0.63;82.75
25944;BME280;13742;49.306;8.636;2023-03-04T03:25:18;101202.59;;;0.55;82.84
25944;BME280;13742;49.306;8.636;2023-03-04T03:26:18;101203.03;;;0.64;83.18
25944;BME280;13742;49.306;8.636;2023-03-04T03:27:18;101199.11;;;0.52;83.83
25944;BME280;13742;49.306;8.636;2023-03-04T03:28:18;101201.09;;;0.56;83.66
25944;BME280;13742;49.306;8.636;2023-03-04T03:29:18;101202.27;;;0.60;83.99
25944;BME280;13742;49.306;8.636;2023-03-04T03:30:18;101200.61;;;0.61;83.27
25944;BME280;13742;49.306;8.636;2023-03-04T03:31:18;101197.64;;;0.60;83.46
25944;BME280;13742;49.306;8.636;2023-03-04T03:32:18;101198.00;;;0.59;82.65
25944;BME280;13742;49.306;8.636;2023-03-04T03:33:18;101196.86;;;0.63;82.80
25944;BME280;13742;49.306;8.636;2023-03-04T03:34:18;101194.92;;;0.61;82.73
25944;BME280;13742;49.306;8.636;2023-03-04T03:35:18;101196.23;;;0.62;83.15
25944;BME280;13742;49.306;8.636;2023-03-04T03:36:18;101195.08;;;0.65;82.34
25944;BME280;13742;49.306;8.636;2023-03-04T03:37:18;101195.47;;;0.67;82.15
25944;BME280;13742;49.306;8.636;2023-03-04T03:38:18;101193.08;;;0.68;82.24
25944;BME280;13742;49.306;8.636;2023-03-04T03:39:18;101191.05;;;0.69;82.15
25944;BME280;13742;49.306;8.636;2023-03-04T03:40:18;101194.52;;;0.70;82.30
25944;BME280;13742;49.306;8.636;2023-03-04T03:41:18;101194.89;;;0.71;82.17
25944;BME280;13742;49.306;8.636;2023-03-04T03:42:18;101195.86;;;0.71;82.17
25944;BME280;13742;49.306;8.636;2023-03-04T03:43:18;101197.52;;;0.69;82.18
25944;BME280;13742;49.306;8.636;2023-03-04T03:44:18;101200.05;;;0.70;82.11
25944;BME280;13742;49.306;8.636;2023-03-04T03:45:18;101202.36;;;0.71;81.75
25944;BME280;13742;49.306;8.636;2023-03-04T03:46:18;101200.23;;;0.69;81.96
25944;BME280;13742;49.306;8.636;2023-03-04T03:47:18;101202.83;;;0.68;81.56
25944;BME280;13742;49.306;8.636;2023-03-04T03:48:18;101204.38;;;0.69;81.70
25944;BME280;13742;49.306;8.636;2023-03-04T03:49:18;101205.27;;;0.63;82.18
25944;BME280;13742;49.306;8.636;2023-03-04T03:50:18;101206.91;;;0.66;82.47
25944;BME280;13742;49.306;8.636;2023-03-04T03:51:18;101206.39;;;0.66;81.87
25944;BME280;13742;49.306;8.636;2023-03-04T03:52:18;101207.55;;;0.65;81.27
25944;BME280;13742;49.306;8.636;2023-03-04T03:53:18;101210.58;;;0.67;81.29
25944;BME280;13742;49.306;8.636;2023-03-04T03:54:18;101208.06;;;0.67;81.13
25944;BME280;13742;49.306;8.636;2023-03-04T03:55:18;101207.70;;;0.68;81.34
25944;BME280;13742;49.306;8.636;2023-03-04T03:56:18;101209.08;;;0.68;80.88
25944;BME280;13742;49.306;8.636;2023-03-04T03:57:18;101212.91;;;0.69;80.70
25944;BME280;13742;49.306;8.636;2023-03-04T03:58:18;101212.50;;;0.68;80.36
25944;BME280;13742;49.306;8.636;2023-03-04T03:59:18;101217.14;;;0.70;80.70
25944;BME280;13742;49.306;8.636;2023-03-04T04:00:18;101215.13;;;0.67;80.62
25944;BME280;13742;49.306;8.636;2023-03-04T04:01:18;101218.22;;;0.67;80.21
25944;BME280;13742;49.306;8.636;2023-03-04T04:02:18;101216.41;;;0.65;80.06
25944;BME280;13742;49.306;8.636;2023-03-04T04:03:18;101217.45;;;0.67;79.93
25944;BME280;13742;49.306;8.636;2023-03-04T04:04:18;101217.39;;;0.65;80.03
25944;BME280;13742;49.306;8.636;2023-03-04T04:05:18;101216.43;;;0.67;80.25
25944;BME280;13742;49.306;8.636;2023-03-04T04:06:18;101217.13;;;0.68;80.48
25944;BME280;13742;49.306;8.636;2023-03-04T04:07:18;101221.17;;;0.66;79.73
25944;BME280;13742;49.306;8.636;2023-03-04T04:08:18;101219.33;;;0.68;80.08
25944;BME280;13742;49.306;8.636;2023-03-04T04:09:18;101222.33;;;0.68;80.00
25944;BME280;13742;49.306;8.636;2023-03-04T04:10:19;101220.78;;;0.68;80.23
25944;BME280;13742;49.306;8.636;2023-03-04T04:11:18;101224.66;;;0.69;80.04
25944;BME280;13742;49.306;8.636;2023-03-04T04:12:18;101221.07;;;0.68;80.07
25944;BME280;13742;49.306;8.636;2023-03-04T04:13:18;101222.83;;;0.69;79.85
25944;BME280;13742;49.306;8.636;2023-03-04T04:14:18;101220.67;;;0.69;80.09
25944;BME280;13742;49.306;8.636;2023-03-04T04:15:18;101218.33;;;0.70;80.29
25944;BME280;13742;49.306;8.636;2023-03-04T04:16:18;101221.13;;;0.70;80.79
25944;BME280;13742;49.306;8.636;2023-03-04T04:17:18;101223.26;;;0.72;80.56
25944;BME280;13742;49.306;8.636;2023-03-04T04:18:18;101222.55;;;0.70;80.02
25944;BME280;13742;49.306;8.636;2023-03-04T04:19:18;101222.25;;;0.69;80.07
25944;BME280;13742;49.306;8.636;2023-03-04T04:20:18;101221.20;;;0.68;79.79
25944;BME280;13742;49.306;8.636;2023-03-04T04:21:18;101224.36;;;0.68;79.53
25944;BME280;13742;49.306;8.636;2023-03-04T04:22:19;101221.48;;;0.69;79.73
25944;BME280;13742;49.306;8.636;2023-03-04T04:23:18;101222.50;;;0.69;80.42
25944;BME280;13742;49.306;8.636;2023-03-04T04:24:18;101224.69;;;0.68;79.78
25944;BME280;13742;49.306;8.636;2023-03-04T04:25:18;101225.27;;;0.70;79.87
25944;BME280;13742;49.306;8.636;2023-03-04T04:26:18;101226.35;;;0.68;79.73
25944;BME280;13742;49.306;8.636;2023-03-04T04:27:18;101226.27;;;0.68;79.73
25944;BME280;13742;49.306;8.636;2023-03-04T04:28:18;101225.13;;;0.68;79.60
25944;BME280;13742;49.306;8.636;2023-03-04T04:29:18;101227.45;;;0.69;80.26
25944;BME280;13742;49.306;8.636;2023-03-04T04:30:18;101225.10;;;0.69;80.83
25944;BME280;13742;49.306;8.636;2023-03-04T04:31:18;101224.74;;;0.65;81.43
25944;BME280;13742;49.306;8.636;2023-03-04T04:32:18;101223.28;;;0.66;81.81
25944;BME280;13742;49.306;8.636;2023-03-04T04:33:18;101221.16;;;0.55;81.49
25944;BME280;13742;49.306;8.636;2023-03-04T04:34:18;101218.91;;;0.58;81.63
25944;BME280;13742;49.306;8.636;2023-03-04T04:35:18;101218.81;;;0.61;81.71
25944;BME280;13742;49.306;8.636;2023-03-04T04:36:18;101223.30;;;0.63;82.25
25944;BME280;13742;49.306;8.636;2023-03-04T04:37:18;101223.11;;;0.60;82.09
25944;BME280;13742;49.306;8.636;2023-03-04T04:38:18;101221.23;;;0.58;82.83
25944;BME280;13742;49.306;8.636;2023-03-04T04:39:18;101220.52;;;0.52;82.75
25944;BME280;13742;49.306;8.636;2023-03-04T04:40:18;101222.48;;;0.37;84.11
25944;BME280;13742;49.306;8.636;2023-03-04T04:41:19;101221.59;;;0.45;84.47
25944;BME280;13742;49.306;8.636;2023-03-04T04:42:18;101221.44;;;0.31;85.11
25944;BME280;13742;49.306;8.636;2023-03-04T04:43:18;101220.97;;;0.31;85.83
25944;BME280;13742;49.306;8.636;2023-03-04T04:44:18;101223.00;;;0.32;85.70
25944;BME280;13742;49.306;8.636;2023-03-04T04:45:18;101223.45;;;0.36;85.78
25944;BME280;13742;49.306;8.636;2023-03-04T04:46:18;101227.55;;;0.17;86.11
25944;BME280;13742;49.306;8.636;2023-03-04T04:47:18;101225.81;;;0.18;86.85
25944;BME280;13742;49.306;8.636;2023-03-04T04:48:18;101226.91;;;0.22;86.96
25944;BME280;13742;49.306;8.636;2023-03-04T04:49:18;101225.16;;;0.25;86.48
25944;BME280;13742;49.306;8.636;2023-03-04T04:50:18;101226.55;;;0.18;86.80
25944;BME280;13742;49.306;8.636;2023-03-04T04:51:18;101227.28;;;0.07;87.45
25944;BME280;13742;49.306;8.636;2023-03-04T04:52:18;101227.14;;;0.06;87.69
25944;BME280;13742;49.306;8.636;2023-03-04T04:53:18;101224.06;;;0.14;87.99
25944;BME280;13742;49.306;8.636;2023-03-04T04:54:18;101225.11;;;0.17;87.56
25944;BME280;13742;49.306;8.636;2023-03-04T04:55:18;101228.36;;;0.21;87.58
25944;BME280;13742;49.306;8.636;2023-03-04T04:56:19;101226.44;;;0.22;87.27
25944;BME280;13742;49.306;8.636;2023-03-04T04:57:18;101225.40;;;0.24;86.27
25944;BME280;13742;49.306;8.636;2023-03-04T04:58:18;101226.01;;;0.25;85.64
25944;BME280;13742;49.306;8.636;2023-03-04T04:59:18;101225.64;;;0.28;86.33
25944;BME280;13742;49.306;8.636;2023-03-04T05:00:18;101223.77;;;0.31;85.95
25944;BME280;13742;49.306;8.636;2023-03-04T05:01:18;101224.36;;;0.33;86.09
25944;BME280;13742;49.306;8.636;2023-03-04T05:02:18;101221.40;;;0.34;85.33
25944;BME280;13742;49.306;8.636;2023-03-04T05:03:18;101222.45;;;0.38;85.39
25944;BME280;13742;49.306;8.636;2023-03-04T05:04:18;101222.67;;;0.40;85.33
25944;BME280;13742;49.306;8.636;2023-03-04T05:05:18;101223.36;;;0.43;85.33
25944;BME280;13742;49.306;8.636;2023-03-04T05:06:18;101225.60;;;0.44;84.63
25944;BME280;13742;49.306;8.636;2023-03-04T05:07:18;101222.53;;;0.47;84.81
25944;BME280;13742;49.306;8.636;2023-03-04T05:08:18;101230.96;;;0.48;84.61
25944;BME280;13742;49.306;8.636;2023-03-04T05:09:19;101227.65;;;0.46;84.45
25944;BME280;13742;49.306;8.636;2023-03-04T05:10:18;101225.75;;;0.47;83.75
25944;BME280;13742;49.306;8.636;2023-03-04T05:11:18;101224.48;;;0.47;83.20
25944;BME280;13742;49.306;8.636;2023-03-04T05:12:18;101222.63;;;0.47;82.87
25944;BME280;13742;49.306;8.636;2023-03-04T05:13:18;101222.53;;;0.47;82.71
25944;BME280;13742;49.306;8.636;2023-03-04T05:14:18;101224.40;;;0.46;83.03
25944;BME280;13742;49.306;8.636;2023-03-04T05:15:18;101226.77;;;0.47;82.44
25944;BME280;13742;49.306;8.636;2023-03-04T05:16:18;101223.75;;;0.46;82.25
25944;BME280;13742;49.306;8.636;2023-03-04T05:17:18;101226.02;;;0.46;81.99
25944;BME280;13742;49.306;8.636;2023-03-04T05:18:19;101226.16;;;0.47;81.91
25944;BME280;13742;49.306;8.636;2023-03-04T05:19:18;101225.67;;;0.47;81.68
25944;BME280;13742;49.306;8.636;2023-03-04T05:20:18;101227.27;;;0.49;82.07
25944;BME280;13742;49.306;8.636;2023-03-04T05:21:18;101227.44;;;0.50;81.98
25944;BME280;13742;49.306;8.636;2023-03-04T05:22:18;101225.32;;;0.49;81.56
25944;BME280;13742;49.306;8.636;2023-03-04T05:23:18;101226.53;;;0.48;81.05